createdAt,value
2018-12-21T00:00:09.703Z,1008.07
2018-12-21T00:01:09.685Z,1008.05
2018-12-21T00:02:09.696Z,1008.02
2018-12-21T00:03:09.666Z,1008.07
2018-12-21T00:04:09.654Z,1008.06
2018-12-21T00:05:09.669Z,1008.03
2018-12-21T00:06:09.646Z,1008.08
2018-12-21T00:07:09.637Z,1008.05
2018-12-21T00:08:09.630Z,1008.02
2018-12-21T00:09:09.613Z,1008.07
2018-12-21T00:10:09.603Z,1008.05
2018-12-21T00:11:09.600Z,1008.04
2018-12-21T00:12:09.577Z,1008.05
2018-12-21T00:13:09.556Z,1008.07
2018-12-21T00:14:09.560Z,1008.05
2018-12-21T00:15:09.574Z,1008.03
2018-12-21T00:16:09.527Z,1008.05
2018-12-21T00:17:09.519Z,1007.99
2018-12-21T00:18:09.512Z,1008.03
2018-12-21T00:19:09.496Z,1007.99
2018-12-21T00:20:09.490Z,1008.02
2018-12-21T00:21:09.493Z,1007.98
2018-12-21T00:22:09.458Z,1007.96
2018-12-21T00:23:09.465Z,1007.98
2018-12-21T00:24:09.452Z,1007.91
2018-12-21T00:25:09.447Z,1007.96
2018-12-21T00:26:09.428Z,1007.99
2018-12-21T00:27:09.419Z,1007.93
2018-12-21T00:28:09.393Z,1007.99
2018-12-21T00:29:09.393Z,1007.97
2018-12-21T00:30:09.383Z,1008.02
2018-12-21T00:31:09.374Z,1007.96
2018-12-21T00:32:09.355Z,1007.93
2018-12-21T00:33:09.346Z,1007.95
2018-12-21T00:34:09.335Z,1007.90
2018-12-21T00:35:09.329Z,1007.93
2018-12-21T00:36:09.317Z,1007.88
2018-12-21T00:37:09.312Z,1007.89
2018-12-21T00:38:09.292Z,1007.86
2018-12-21T00:39:09.284Z,1007.89
2018-12-21T00:40:09.288Z,1007.85
2018-12-21T00:41:09.264Z,1007.87
2018-12-21T00:42:09.258Z,1007.87
2018-12-21T00:43:09.240Z,1007.86
2018-12-21T00:44:09.239Z,1007.84
2018-12-21T00:45:09.265Z,1007.83
2018-12-21T00:46:09.219Z,1007.84
2018-12-21T00:47:09.205Z,1007.86
2018-12-21T00:48:09.184Z,1007.82
2018-12-21T00:49:09.174Z,1007.84
2018-12-21T00:50:09.182Z,1007.85
2018-12-21T00:51:09.154Z,1007.84
2018-12-21T00:52:09.150Z,1007.86
2018-12-21T00:53:09.143Z,1007.88
2018-12-21T00:54:09.119Z,1007.85
2018-12-21T00:55:09.111Z,1007.88
2018-12-21T00:56:09.110Z,1007.86
2018-12-21T00:57:09.092Z,1007.87
2018-12-21T00:58:09.085Z,1007.90
2018-12-21T00:59:09.077Z,1007.88
2018-12-21T01:00:09.064Z,1007.91
2018-12-21T01:01:09.054Z,1007.88
2018-12-21T01:02:09.028Z,1007.90
2018-12-21T01:03:09.036Z,1007.94
2018-12-21T01:04:09.020Z,1007.91
2018-12-21T01:05:08.995Z,1007.94
2018-12-21T01:06:08.989Z,1007.95
2018-12-21T01:07:08.982Z,1007.95
2018-12-21T01:08:08.977Z,1007.96
2018-12-21T01:09:08.959Z,1008.00
2018-12-21T01:10:08.968Z,1008.01
2018-12-21T01:11:08.937Z,1008.00
2018-12-21T01:12:08.920Z,1008.00
2018-12-21T01:13:08.945Z,1008.01
2018-12-21T01:14:08.898Z,1008.05
2018-12-21T01:15:08.902Z,1008.02
2018-12-21T01:16:08.881Z,1008.01
2018-12-21T01:17:08.891Z,1008.04
2018-12-21T01:18:08.878Z,1008.03
2018-12-21T01:19:08.860Z,1008.00
2018-12-21T01:20:08.841Z,1008.05
2018-12-21T01:21:08.824Z,1008.02
2018-12-21T01:22:08.825Z,1008.06
2018-12-21T01:23:08.812Z,1008.03
2018-12-21T01:24:08.795Z,1008.01
2018-12-21T01:25:08.783Z,1008.08
2018-12-21T01:26:08.815Z,1008.07
2018-12-21T01:27:08.772Z,1008.03
2018-12-21T01:28:08.750Z,1008.02
2018-12-21T01:29:08.748Z,1008.02
2018-12-21T01:30:08.725Z,1008.06
2018-12-21T01:31:08.729Z,1008.05
2018-12-21T01:32:08.735Z,1008.04
2018-12-21T01:33:08.708Z,1007.99
2018-12-21T01:34:08.686Z,1007.98
2018-12-21T01:35:08.681Z,1007.95
2018-12-21T01:36:08.676Z,1007.92
2018-12-21T01:37:08.660Z,1007.90
2018-12-21T01:38:08.652Z,1007.90
2018-12-21T01:39:08.631Z,1007.86
2018-12-21T01:40:08.660Z,1007.87
2018-12-21T01:41:08.606Z,1007.84
2018-12-21T01:42:08.600Z,1007.84
2018-12-21T01:43:08.595Z,1007.82
2018-12-21T01:44:08.590Z,1007.83
2018-12-21T01:45:08.582Z,1007.84
2018-12-21T01:46:08.566Z,1007.76
2018-12-21T01:47:08.558Z,1007.85
2018-12-21T01:48:08.545Z,1007.80
2018-12-21T01:49:08.536Z,1007.77
2018-12-21T01:50:08.509Z,1007.72
2018-12-21T01:51:08.636Z,1007.75
2018-12-21T01:52:08.489Z,1007.75
2018-12-21T01:53:08.499Z,1007.73
2018-12-21T01:54:08.472Z,1007.76
2018-12-21T01:55:08.462Z,1007.79
2018-12-21T01:56:08.450Z,1007.78
2018-12-21T01:57:08.450Z,1007.76
2018-12-21T01:58:08.431Z,1007.79
2018-12-21T01:59:08.428Z,1007.72
2018-12-21T02:00:08.418Z,1007.74
2018-12-21T02:01:08.396Z,1007.73
2018-12-21T02:02:08.427Z,1007.72
2018-12-21T02:03:08.376Z,1007.71
2018-12-21T02:04:08.359Z,1007.70
2018-12-21T02:05:08.358Z,1007.72
2018-12-21T02:06:08.350Z,1007.67
2018-12-21T02:07:08.337Z,1007.70
2018-12-21T02:08:08.342Z,1007.69
2018-12-21T02:09:08.316Z,1007.65
2018-12-21T02:10:08.306Z,1007.67
2018-12-21T02:11:08.291Z,1007.70
2018-12-21T02:12:08.296Z,1007.65
2018-12-21T02:13:08.301Z,1007.65
2018-12-21T02:14:08.270Z,1007.61
2018-12-21T02:15:08.247Z,1007.62
2018-12-21T02:16:08.231Z,1007.60
2018-12-21T02:17:08.231Z,1007.60
2018-12-21T02:18:08.214Z,1007.60
2018-12-21T02:19:08.242Z,1007.63
2018-12-21T02:20:08.197Z,1007.58
2018-12-21T02:21:08.189Z,1007.55
2018-12-21T02:22:08.166Z,1007.49
2018-12-21T02:23:08.156Z,1007.53
2018-12-21T02:24:08.150Z,1007.53
2018-12-21T02:25:08.143Z,1007.49
2018-12-21T02:26:08.125Z,1007.52
2018-12-21T02:27:08.118Z,1007.48
2018-12-21T02:28:08.113Z,1007.48
2018-12-21T02:29:08.101Z,1007.47
2018-12-21T02:30:08.146Z,1007.51
2018-12-21T02:31:08.084Z,1007.49
2018-12-21T02:32:08.074Z,1007.50
2018-12-21T02:33:08.071Z,1007.48
2018-12-21T02:34:08.057Z,1007.48
2018-12-21T02:35:08.037Z,1007.49
2018-12-21T02:36:08.044Z,1007.50
2018-12-21T02:37:08.018Z,1007.53
2018-12-21T02:38:07.998Z,1007.42
2018-12-21T02:39:07.988Z,1007.46
2018-12-21T02:40:07.993Z,1007.36
2018-12-21T02:41:07.987Z,1007.36
2018-12-21T02:42:07.978Z,1007.49
2018-12-21T02:43:07.959Z,1007.38
2018-12-21T02:44:07.950Z,1007.44
2018-12-21T02:45:07.926Z,1007.43
2018-12-21T02:46:07.921Z,1007.49
2018-12-21T02:47:07.920Z,1007.46
2018-12-21T02:48:07.901Z,1007.44
2018-12-21T02:49:07.888Z,1007.44
2018-12-21T02:50:07.879Z,1007.43
2018-12-21T02:51:07.868Z,1007.39
2018-12-21T02:52:07.864Z,1007.39
2018-12-21T02:53:07.842Z,1007.40
2018-12-21T02:54:07.835Z,1007.38
2018-12-21T02:55:07.820Z,1007.36
2018-12-21T02:56:07.824Z,1007.40
2018-12-21T02:57:07.819Z,1007.39
2018-12-21T02:58:07.808Z,1007.40
2018-12-21T02:59:07.791Z,1007.35
2018-12-21T03:00:07.772Z,1007.36
2018-12-21T03:01:07.770Z,1007.39
2018-12-21T03:02:07.766Z,1007.36
2018-12-21T03:03:07.755Z,1007.37
2018-12-21T03:04:07.736Z,1007.37
2018-12-21T03:05:07.727Z,1007.36
2018-12-21T03:06:07.709Z,1007.29
2018-12-21T03:07:07.706Z,1007.35
2018-12-21T03:08:07.691Z,1007.30
2018-12-21T03:09:07.705Z,1007.28
2018-12-21T03:10:07.665Z,1007.26
2018-12-21T03:11:07.654Z,1007.30
2018-12-21T03:12:07.639Z,1007.24
2018-12-21T03:13:07.640Z,1007.28
2018-12-21T03:14:07.616Z,1007.30
2018-12-21T03:15:07.615Z,1007.27
2018-12-21T03:16:07.606Z,1007.25
2018-12-21T03:17:07.596Z,1007.23
2018-12-21T03:18:07.593Z,1007.23
2018-12-21T03:19:07.566Z,1007.23
2018-12-21T03:20:07.560Z,1007.27
2018-12-21T03:21:07.538Z,1007.27
2018-12-21T03:22:14.677Z,1007.27
2018-12-21T03:23:08.528Z,1007.25
2018-12-21T03:24:07.512Z,1007.27
2018-12-21T03:25:07.526Z,1007.26
2018-12-21T03:26:07.489Z,1007.25
2018-12-21T03:27:07.484Z,1007.27
2018-12-21T03:28:07.477Z,1007.25
2018-12-21T03:29:07.462Z,1007.24
2018-12-21T03:30:07.470Z,1007.27
2018-12-21T03:31:07.453Z,1007.25
2018-12-21T03:32:07.427Z,1007.26
2018-12-21T03:33:07.421Z,1007.23
2018-12-21T03:34:07.402Z,1007.26
2018-12-21T03:35:07.407Z,1007.23
2018-12-21T03:36:07.438Z,1007.21
2018-12-21T03:37:07.382Z,1007.19
2018-12-21T03:38:07.357Z,1007.21
2018-12-21T03:39:07.358Z,1007.17
2018-12-21T03:40:07.351Z,1007.16
2018-12-21T03:41:07.330Z,1007.17
2018-12-21T03:42:07.327Z,1007.13
2018-12-21T03:43:07.317Z,1007.09
2018-12-21T03:44:07.294Z,1007.11
2018-12-21T03:45:07.295Z,1007.10
2018-12-21T03:46:07.282Z,1007.10
2018-12-21T03:47:07.278Z,1007.11
2018-12-21T03:48:07.261Z,1007.06
2018-12-21T03:49:07.251Z,1007.10
2018-12-21T03:50:07.237Z,1007.09
2018-12-21T03:51:07.228Z,1007.05
2018-12-21T03:52:07.238Z,1007.06
2018-12-21T03:53:07.206Z,1007.04
2018-12-21T03:54:07.191Z,1007.05
2018-12-21T03:55:07.193Z,1007.03
2018-12-21T03:56:07.176Z,1007.01
2018-12-21T03:57:07.153Z,1007.03
2018-12-21T03:58:07.181Z,1007.03
2018-12-21T03:59:07.138Z,1006.99
2018-12-21T04:00:07.123Z,1006.97
2018-12-21T04:01:07.115Z,1006.99
2018-12-21T04:02:07.107Z,1006.93
2018-12-21T04:03:07.095Z,1006.91
2018-12-21T04:04:07.093Z,1006.94
2018-12-21T04:05:07.080Z,1006.92
2018-12-21T04:06:07.059Z,1006.94
2018-12-21T04:07:07.054Z,1006.93
2018-12-21T04:08:07.047Z,1006.90
2018-12-21T04:09:07.059Z,1006.88
2018-12-21T04:10:07.025Z,1006.88
2018-12-21T04:11:15.048Z,1006.94
2018-12-21T04:12:07.005Z,1006.84
2018-12-21T04:13:06.999Z,1006.87
2018-12-21T04:14:08.533Z,1006.89
2018-12-21T04:15:06.986Z,1006.88
2018-12-21T04:16:06.954Z,1006.84
2018-12-21T04:17:06.941Z,1006.84
2018-12-21T04:18:08.629Z,1006.79
2018-12-21T04:19:06.946Z,1006.79
2018-12-21T04:20:06.909Z,1006.78
2018-12-21T04:21:06.915Z,1006.76
2018-12-21T04:22:06.903Z,1006.79
2018-12-21T04:23:06.881Z,1006.81
2018-12-21T04:24:06.884Z,1006.85
2018-12-21T04:25:06.884Z,1006.78
2018-12-21T04:26:06.913Z,1006.79
2018-12-21T04:27:06.858Z,1006.78
2018-12-21T04:28:06.839Z,1006.79
2018-12-21T04:29:07.805Z,1006.79
2018-12-21T04:30:06.818Z,1006.78
2018-12-21T04:31:06.804Z,1006.77
2018-12-21T04:32:06.792Z,1006.79
2018-12-21T04:33:06.783Z,1006.80
2018-12-21T04:34:06.760Z,1006.80
2018-12-21T04:35:06.765Z,1006.77
2018-12-21T04:36:06.748Z,1006.80
2018-12-21T04:37:06.793Z,1006.79
2018-12-21T04:38:06.733Z,1006.79
2018-12-21T04:39:06.715Z,1006.75
2018-12-21T04:40:06.705Z,1006.80
2018-12-21T04:41:06.690Z,1006.79
2018-12-21T04:42:06.691Z,1006.75
2018-12-21T04:43:06.680Z,1006.76
2018-12-21T04:44:06.671Z,1006.73
2018-12-21T04:45:06.655Z,1006.73
2018-12-21T04:46:06.660Z,1006.72
2018-12-21T04:47:06.627Z,1006.78
2018-12-21T04:48:06.634Z,1006.76
2018-12-21T04:49:06.599Z,1006.74
2018-12-21T04:50:06.595Z,1006.73
2018-12-21T04:51:06.594Z,1006.72
2018-12-21T04:52:06.579Z,1006.71
2018-12-21T04:53:06.568Z,1006.70
2018-12-21T04:54:06.560Z,1006.70
2018-12-21T04:55:06.538Z,1006.69
2018-12-21T04:56:06.532Z,1006.66
2018-12-21T04:57:06.610Z,1006.64
2018-12-21T04:58:06.545Z,1006.68
2018-12-21T04:59:06.499Z,1006.65
2018-12-21T05:00:06.495Z,1006.62
2018-12-21T05:01:06.490Z,1006.62
2018-12-21T05:02:06.465Z,1006.59
2018-12-21T05:03:06.450Z,1006.57
2018-12-21T05:04:06.455Z,1006.62
2018-12-21T05:05:06.439Z,1006.62
2018-12-21T05:06:06.421Z,1006.57
2018-12-21T05:07:12.324Z,1006.61
2018-12-21T05:08:07.397Z,1006.57
2018-12-21T05:09:06.418Z,1006.59
2018-12-21T05:10:06.385Z,1006.55
2018-12-21T05:11:06.381Z,1006.57
2018-12-21T05:12:06.371Z,1006.53
2018-12-21T05:13:06.350Z,1006.57
2018-12-21T05:14:08.050Z,1006.54
2018-12-21T05:15:06.339Z,1006.54
2018-12-21T05:16:06.328Z,1006.55
2018-12-21T05:17:06.317Z,1006.53
2018-12-21T05:18:06.296Z,1006.52
2018-12-21T05:19:06.301Z,1006.53
2018-12-21T05:20:06.280Z,1006.52
2018-12-21T05:21:06.276Z,1006.55
2018-12-21T05:22:06.251Z,1006.51
2018-12-21T05:23:06.241Z,1006.49
2018-12-21T05:24:06.235Z,1006.48
2018-12-21T05:25:06.249Z,1006.49
2018-12-21T05:26:06.218Z,1006.53
2018-12-21T05:27:06.205Z,1006.51
2018-12-21T05:28:06.185Z,1006.52
2018-12-21T05:29:06.175Z,1006.47
2018-12-21T05:30:06.168Z,1006.50
2018-12-21T05:31:06.176Z,1006.47
2018-12-21T05:32:06.159Z,1006.51
2018-12-21T05:33:06.133Z,1006.48
2018-12-21T05:34:06.127Z,1006.45
2018-12-21T05:35:06.127Z,1006.50
2018-12-21T05:36:06.106Z,1006.53
2018-12-21T05:37:06.132Z,1006.50
2018-12-21T05:38:06.098Z,1006.48
2018-12-21T05:39:06.069Z,1006.48
2018-12-21T05:40:06.057Z,1006.47
2018-12-21T05:41:06.051Z,1006.45
2018-12-21T05:42:06.047Z,1006.44
2018-12-21T05:43:06.044Z,1006.38
2018-12-21T05:44:06.025Z,1006.40
2018-12-21T05:45:06.012Z,1006.39
2018-12-21T05:46:05.994Z,1006.40
2018-12-21T05:47:05.984Z,1006.38
2018-12-21T05:48:06.001Z,1006.37
2018-12-21T05:49:05.973Z,1006.37
2018-12-21T05:50:05.957Z,1006.30
2018-12-21T05:51:05.950Z,1006.34
2018-12-21T05:52:05.930Z,1006.26
2018-12-21T05:53:05.925Z,1006.24
2018-12-21T05:54:05.934Z,1006.19
2018-12-21T05:55:05.910Z,1006.21
2018-12-21T05:56:05.902Z,1006.17
2018-12-21T05:57:05.889Z,1006.18
2018-12-21T05:58:05.878Z,1006.16
2018-12-21T05:59:05.870Z,1006.17
2018-12-21T06:00:05.854Z,1006.18
2018-12-21T06:01:05.834Z,1006.20
2018-12-21T06:02:05.830Z,1006.17
2018-12-21T06:03:05.849Z,1006.17
2018-12-21T06:04:05.807Z,1006.18
2018-12-21T06:05:05.797Z,1006.12
2018-12-21T06:06:05.786Z,1006.05
2018-12-21T06:07:05.770Z,1006.02
2018-12-21T06:08:05.774Z,1006.06
2018-12-21T06:09:05.780Z,1005.99
2018-12-21T06:10:05.753Z,1006.00
2018-12-21T06:11:05.737Z,1006.01
2018-12-21T06:12:05.721Z,1005.97
2018-12-21T06:13:05.716Z,1005.94
2018-12-21T06:14:05.718Z,1005.94
2018-12-21T06:15:05.694Z,1005.93
2018-12-21T06:16:05.676Z,1005.89
2018-12-21T06:17:05.675Z,1005.90
2018-12-21T06:18:05.651Z,1005.87
2018-12-21T06:19:05.650Z,1005.89
2018-12-21T06:20:05.650Z,1005.86
2018-12-21T06:21:05.620Z,1005.85
2018-12-21T06:22:05.616Z,1005.85
2018-12-21T06:23:09.577Z,1005.82
2018-12-21T06:24:05.594Z,1005.81
2018-12-21T06:25:05.602Z,1005.78
2018-12-21T06:26:05.582Z,1005.72
2018-12-21T06:27:05.556Z,1005.67
2018-12-21T06:28:05.551Z,1005.65
2018-12-21T06:29:05.553Z,1005.58
2018-12-21T06:30:05.652Z,1005.63
2018-12-21T06:31:05.529Z,1005.59
2018-12-21T06:32:05.512Z,1005.54
2018-12-21T06:33:05.498Z,1005.51
2018-12-21T06:34:05.511Z,1005.53
2018-12-21T06:35:05.501Z,1005.45
2018-12-21T06:36:05.470Z,1005.48
2018-12-21T06:37:05.457Z,1005.47
2018-12-21T06:38:05.458Z,1005.44
2018-12-21T06:39:05.459Z,1005.40
2018-12-21T06:40:05.437Z,1005.45
2018-12-21T06:41:05.440Z,1005.42
2018-12-21T06:42:05.404Z,1005.39
2018-12-21T06:43:05.400Z,1005.42
2018-12-21T06:44:05.387Z,1005.38
2018-12-21T06:45:05.380Z,1005.40
2018-12-21T06:46:13.984Z,1005.39
2018-12-21T06:47:06.361Z,1005.39
2018-12-21T06:48:05.345Z,1005.39
2018-12-21T06:49:05.335Z,1005.42
2018-12-21T06:50:05.311Z,1005.42
2018-12-21T06:51:05.300Z,1005.43
2018-12-21T06:52:05.331Z,1005.39
2018-12-21T06:53:05.317Z,1005.38
2018-12-21T06:54:05.279Z,1005.40
2018-12-21T06:55:05.275Z,1005.35
2018-12-21T06:56:05.259Z,1005.35
2018-12-21T06:57:05.242Z,1005.35
2018-12-21T06:58:05.235Z,1005.30
2018-12-21T06:59:05.216Z,1005.27
2018-12-21T07:00:05.220Z,1005.24
2018-12-21T07:01:05.196Z,1005.25
2018-12-21T07:02:05.291Z,1005.28
2018-12-21T07:03:05.173Z,1005.26
2018-12-21T07:04:05.186Z,1005.25
2018-12-21T07:05:05.153Z,1005.23
2018-12-21T07:06:05.156Z,1005.22
2018-12-21T07:07:05.140Z,1005.21
2018-12-21T07:08:05.131Z,1005.25
2018-12-21T07:09:05.135Z,1005.23
2018-12-21T07:10:05.109Z,1005.21
2018-12-21T07:11:05.113Z,1005.19
2018-12-21T07:12:05.087Z,1005.16
2018-12-21T07:13:05.071Z,1005.15
2018-12-21T07:14:05.055Z,1005.16
2018-12-21T07:15:05.051Z,1005.16
2018-12-21T07:16:05.053Z,1005.17
2018-12-21T07:17:05.038Z,1005.16
2018-12-21T07:18:05.051Z,1005.19
2018-12-21T07:19:05.008Z,1005.18
2018-12-21T07:20:04.995Z,1005.17
2018-12-21T07:21:04.989Z,1005.16
2018-12-21T07:22:04.974Z,1005.12
2018-12-21T07:23:05.095Z,1005.12
2018-12-21T07:24:04.989Z,1005.13
2018-12-21T07:25:05.108Z,1005.06
2018-12-21T07:26:04.940Z,1005.07
2018-12-21T07:27:04.922Z,1005.05
2018-12-21T07:28:04.914Z,1005.07
2018-12-21T07:29:04.894Z,1005.10
2018-12-21T07:30:04.901Z,1005.12
2018-12-21T07:31:04.907Z,1005.07
2018-12-21T07:32:04.877Z,1005.09
2018-12-21T07:33:04.866Z,1005.04
2018-12-21T07:34:04.849Z,1005.07
2018-12-21T07:35:04.852Z,1005.01
2018-12-21T07:36:08.529Z,1005.03
2018-12-21T07:37:04.860Z,1005.03
2018-12-21T07:38:04.811Z,1004.97
2018-12-21T07:39:04.802Z,1004.98
2018-12-21T07:40:04.794Z,1004.98
2018-12-21T07:41:04.774Z,1004.98
2018-12-21T07:42:04.769Z,1004.98
2018-12-21T07:43:04.777Z,1004.99
2018-12-21T07:44:04.736Z,1004.96
2018-12-21T07:45:04.731Z,1004.94
2018-12-21T07:46:04.728Z,1004.96
2018-12-21T07:47:04.700Z,1004.92
2018-12-21T07:48:04.700Z,1004.91
2018-12-21T07:49:04.695Z,1004.89
2018-12-21T07:50:04.683Z,1004.87
2018-12-21T07:51:04.674Z,1004.85
2018-12-21T07:52:04.664Z,1004.86
2018-12-21T07:53:04.636Z,1004.82
2018-12-21T07:54:04.648Z,1004.86
2018-12-21T07:55:04.618Z,1004.81
2018-12-21T07:56:04.608Z,1004.80
2018-12-21T07:57:04.616Z,1004.80
2018-12-21T07:58:04.588Z,1004.85
2018-12-21T07:59:04.589Z,1004.81
2018-12-21T08:00:04.568Z,1004.84
2018-12-21T08:01:04.560Z,1004.83
2018-12-21T08:02:04.554Z,1004.81
2018-12-21T08:03:04.551Z,1004.79
2018-12-21T08:04:04.520Z,1004.80
2018-12-21T08:05:04.517Z,1004.78
2018-12-21T08:06:04.519Z,1004.78
2018-12-21T08:07:04.485Z,1004.75
2018-12-21T08:08:04.476Z,1004.69
2018-12-21T08:09:04.471Z,1004.67
2018-12-21T08:10:04.467Z,1004.67
2018-12-21T08:11:04.443Z,1004.62
2018-12-21T08:12:04.455Z,1004.66
2018-12-21T08:13:04.432Z,1004.67
2018-12-21T08:14:04.433Z,1004.66
2018-12-21T08:15:04.412Z,1004.63
2018-12-21T08:16:04.396Z,1004.66
2018-12-21T08:17:04.377Z,1004.66
2018-12-21T08:18:04.371Z,1004.55
2018-12-21T08:19:04.379Z,1004.58
2018-12-21T08:20:04.364Z,1004.62
2018-12-21T08:21:04.338Z,1004.58
2018-12-21T08:22:04.328Z,1004.60
2018-12-21T08:23:04.330Z,1004.55
2018-12-21T08:24:04.307Z,1004.48
2018-12-21T08:25:04.318Z,1004.49
2018-12-21T08:26:04.289Z,1004.48
2018-12-21T08:27:04.284Z,1004.43
2018-12-21T08:28:04.273Z,1004.46
2018-12-21T08:29:04.247Z,1004.46
2018-12-21T08:30:04.259Z,1004.39
2018-12-21T08:31:04.238Z,1004.44
2018-12-21T08:32:04.217Z,1004.37
2018-12-21T08:33:04.216Z,1004.39
2018-12-21T08:34:04.192Z,1004.32
2018-12-21T08:35:04.198Z,1004.32
2018-12-21T08:36:04.184Z,1004.29
2018-12-21T08:37:04.175Z,1004.32
2018-12-21T08:38:04.173Z,1004.25
2018-12-21T08:39:04.149Z,1004.22
2018-12-21T08:40:04.130Z,1004.18
2018-12-21T08:41:04.158Z,1004.18
2018-12-21T08:42:04.118Z,1004.19
2018-12-21T08:43:04.108Z,1004.17
2018-12-21T08:44:04.099Z,1004.11
2018-12-21T08:45:04.083Z,1004.13
2018-12-21T08:46:04.073Z,1004.06
2018-12-21T08:47:04.070Z,1004.10
2018-12-21T08:48:04.053Z,1004.07
2018-12-21T08:49:04.029Z,1004.09
2018-12-21T08:50:04.020Z,1004.09
2018-12-21T08:51:04.020Z,1004.06
2018-12-21T08:52:03.999Z,1004.05
2018-12-21T08:53:03.995Z,1004.01
2018-12-21T08:54:03.975Z,1003.99
2018-12-21T08:55:03.973Z,1004.02
2018-12-21T08:56:03.956Z,1004.01
2018-12-21T08:57:03.963Z,1003.99
2018-12-21T08:58:03.944Z,1004.00
2018-12-21T08:59:03.927Z,1003.99
2018-12-21T09:00:03.944Z,1003.97
2018-12-21T09:01:03.901Z,1003.95
2018-12-21T09:02:03.904Z,1003.92
2018-12-21T09:03:03.890Z,1003.96
2018-12-21T09:04:03.877Z,1003.93
2018-12-21T09:05:03.867Z,1003.96
2018-12-21T09:06:03.868Z,1003.95
2018-12-21T09:07:03.849Z,1003.95
2018-12-21T09:08:03.830Z,1003.94
2018-12-21T09:09:03.889Z,1003.88
2018-12-21T09:10:03.806Z,1003.90
2018-12-21T09:11:03.808Z,1003.85
2018-12-21T09:12:03.800Z,1003.91
2018-12-21T09:13:03.775Z,1003.88
2018-12-21T09:14:03.784Z,1003.91
2018-12-21T09:15:03.753Z,1003.89
2018-12-21T09:16:03.748Z,1003.84
2018-12-21T09:17:03.744Z,1003.87
2018-12-21T09:18:03.788Z,1003.83
2018-12-21T09:19:03.708Z,1003.78
2018-12-21T09:20:03.702Z,1003.75
2018-12-21T09:21:03.716Z,1003.72
2018-12-21T09:22:03.684Z,1003.68
2018-12-21T09:23:03.679Z,1003.70
2018-12-21T09:24:03.657Z,1003.72
2018-12-21T09:25:03.692Z,1003.70
2018-12-21T09:26:03.654Z,1003.63
2018-12-21T09:27:03.631Z,1003.62
2018-12-21T09:28:03.614Z,1003.62
2018-12-21T09:29:03.605Z,1003.59
2018-12-21T09:30:03.599Z,1003.60
2018-12-21T09:31:03.588Z,1003.55
2018-12-21T09:32:05.211Z,1003.52
2018-12-21T09:33:03.556Z,1003.52
2018-12-21T09:34:03.542Z,1003.46
2018-12-21T09:35:03.537Z,1003.47
2018-12-21T09:36:03.560Z,1003.45
2018-12-21T09:37:03.622Z,1003.44
2018-12-21T09:38:03.508Z,1003.40
2018-12-21T09:39:03.499Z,1003.40
2018-12-21T09:40:03.489Z,1003.43
2018-12-21T09:41:03.481Z,1003.37
2018-12-21T09:42:03.578Z,1003.35
2018-12-21T09:43:03.447Z,1003.35
2018-12-21T09:44:03.445Z,1003.28
2018-12-21T09:45:03.432Z,1003.34
2018-12-21T09:46:03.417Z,1003.37
2018-12-21T09:47:03.407Z,1003.34
2018-12-21T09:48:03.428Z,1003.32
2018-12-21T09:49:03.385Z,1003.27
2018-12-21T09:50:03.372Z,1003.25
2018-12-21T09:51:03.359Z,1003.14
2018-12-21T09:52:03.350Z,1003.13
2018-12-21T09:53:03.347Z,1003.14
2018-12-21T09:54:09.926Z,1003.15
2018-12-21T09:55:04.344Z,1003.10
2018-12-21T09:56:03.312Z,1003.07
2018-12-21T09:57:03.298Z,1003.06
2018-12-21T09:58:03.303Z,1003.09
2018-12-21T09:59:03.287Z,1003.05
2018-12-21T10:00:03.269Z,1003.02
2018-12-21T10:01:03.258Z,1003.00
2018-12-21T10:02:03.248Z,1002.99
2018-12-21T10:03:03.273Z,1003.00
2018-12-21T10:04:03.228Z,1002.96
2018-12-21T10:05:03.220Z,1002.94
2018-12-21T10:06:03.200Z,1002.92
2018-12-21T10:07:03.183Z,1002.90
2018-12-21T10:08:03.175Z,1002.80
2018-12-21T10:09:03.170Z,1002.84
2018-12-21T10:10:03.164Z,1002.77
2018-12-21T10:11:03.140Z,1002.79
2018-12-21T10:12:11.089Z,1002.72
2018-12-21T10:13:03.132Z,1002.69
2018-12-21T10:14:03.109Z,1002.73
2018-12-21T10:15:03.154Z,1002.71
2018-12-21T10:16:03.086Z,1002.70
2018-12-21T10:17:03.082Z,1002.65
2018-12-21T10:18:03.080Z,1002.58
2018-12-21T10:19:03.082Z,1002.55
2018-12-21T10:20:03.060Z,1002.49
2018-12-21T10:21:03.072Z,1002.49
2018-12-21T10:22:03.042Z,1002.46
2018-12-21T10:23:03.026Z,1002.43
2018-12-21T10:24:03.009Z,1002.38
2018-12-21T10:25:03.005Z,1002.38
2018-12-21T10:26:02.992Z,1002.44
2018-12-21T10:27:02.981Z,1002.36
2018-12-21T10:28:02.993Z,1002.37
2018-12-21T10:29:02.949Z,1002.32
2018-12-21T10:30:02.946Z,1002.33
2018-12-21T10:31:02.940Z,1002.30
2018-12-21T10:32:02.942Z,1002.27
2018-12-21T10:33:02.904Z,1002.22
2018-12-21T10:34:02.912Z,1002.17
2018-12-21T10:35:02.885Z,1002.19
2018-12-21T10:36:02.881Z,1002.13
2018-12-21T10:37:02.888Z,1002.09
2018-12-21T10:38:02.848Z,1002.09
2018-12-21T10:39:02.840Z,1002.05
2018-12-21T10:40:02.839Z,1002.04
2018-12-21T10:41:02.825Z,1001.96
2018-12-21T10:42:02.816Z,1001.94
2018-12-21T10:43:02.851Z,1001.91
2018-12-21T10:44:02.795Z,1001.84
2018-12-21T10:45:02.783Z,1001.82
2018-12-21T10:46:02.763Z,1001.78
2018-12-21T10:47:02.762Z,1001.80
2018-12-21T10:48:02.760Z,1001.76
2018-12-21T10:49:02.761Z,1001.73
2018-12-21T10:50:02.769Z,1001.68
2018-12-21T10:51:02.723Z,1001.69
2018-12-21T10:52:02.715Z,1001.62
2018-12-21T10:53:02.698Z,1001.56
2018-12-21T10:54:02.693Z,1001.56
2018-12-21T10:55:02.666Z,1001.51
2018-12-21T10:56:02.665Z,1001.39
2018-12-21T10:57:02.652Z,1001.39
2018-12-21T10:58:02.637Z,1001.38
2018-12-21T10:59:02.674Z,1001.38
2018-12-21T11:00:02.623Z,1001.36
2018-12-21T11:01:02.611Z,1001.41
2018-12-21T11:02:02.599Z,1001.37
2018-12-21T11:03:02.596Z,1001.34
2018-12-21T11:04:02.575Z,1001.32
2018-12-21T11:05:02.600Z,1001.21
2018-12-21T11:06:02.550Z,1001.24
2018-12-21T11:07:02.535Z,1001.18
2018-12-21T11:08:02.534Z,1001.23
2018-12-21T11:09:02.523Z,1001.20
2018-12-21T11:10:02.513Z,1001.14
2018-12-21T11:11:02.509Z,1001.10
2018-12-21T11:12:02.545Z,1001.07
2018-12-21T11:13:02.486Z,1001.07
2018-12-21T11:14:02.473Z,1001.00
2018-12-21T11:15:02.452Z,1000.97
2018-12-21T11:16:02.482Z,1000.97
2018-12-21T11:17:02.429Z,1001.01
2018-12-21T11:18:02.421Z,1001.02
2018-12-21T11:19:02.420Z,1001.00
2018-12-21T11:20:02.406Z,1000.89
2018-12-21T11:21:02.431Z,1000.90
2018-12-21T11:22:02.389Z,1000.85
2018-12-21T11:23:02.374Z,1000.77
2018-12-21T11:24:02.361Z,1000.71
2018-12-21T11:25:02.346Z,1000.69
2018-12-21T11:26:02.341Z,1000.70
2018-12-21T11:27:02.349Z,1000.70
2018-12-21T11:28:02.314Z,1000.67
2018-12-21T11:29:02.317Z,1000.67
2018-12-21T11:30:02.291Z,1000.61
2018-12-21T11:31:02.293Z,1000.60
2018-12-21T11:32:02.310Z,1000.53
2018-12-21T11:33:02.273Z,1000.42
2018-12-21T11:34:02.249Z,1000.39
2018-12-21T11:35:02.248Z,1000.40
2018-12-21T11:36:02.228Z,1000.38
2018-12-21T11:37:02.247Z,1000.37
2018-12-21T11:38:02.214Z,1000.34
2018-12-21T11:39:02.193Z,1000.28
2018-12-21T11:40:02.195Z,1000.28
2018-12-21T11:41:02.183Z,1000.22
2018-12-21T11:42:02.158Z,1000.24
2018-12-21T11:43:02.171Z,1000.19
2018-12-21T11:44:02.167Z,1000.17
2018-12-21T11:45:02.129Z,1000.11
2018-12-21T11:46:02.128Z,1000.08
2018-12-21T11:47:02.123Z,1000.05
2018-12-21T11:48:02.116Z,1000.07
2018-12-21T11:49:02.108Z,1000.03
2018-12-21T11:50:02.082Z,999.95
2018-12-21T11:51:02.076Z,999.95
2018-12-21T11:52:02.071Z,999.89
2018-12-21T11:53:02.063Z,999.87
2018-12-21T11:54:02.035Z,999.84
2018-12-21T11:55:02.036Z,999.86
2018-12-21T11:56:02.007Z,999.86
2018-12-21T11:57:02.001Z,999.86
2018-12-21T11:58:01.990Z,999.82
2018-12-21T11:59:02.023Z,999.74
2018-12-21T12:00:01.984Z,999.71
2018-12-21T12:01:01.957Z,999.66
2018-12-21T12:02:01.949Z,999.61
2018-12-21T12:03:01.946Z,999.60
2018-12-21T12:04:01.926Z,999.59
2018-12-21T12:05:03.127Z,999.56
2018-12-21T12:06:01.902Z,999.62